Station info - map view · info · telemetry · weather · raw · status · beacons · messages · bulletins · browse · moving · my account
Callsign, ship name or locator: Clear       
It is possible to search using wildcards (*?) after a prefix. Example: OH*
APRS station OE3RNB-4 - show graphs
Map loading...
Comment: 431.675MHzSurfmobil
Mic-E message: En route
Location: 37°05.17' N 25°21.06' E - locator KM27QC20CQ - show map - static map
6.7 miles East bearing 112° from Young Inn, Nomós Kykládon, South Aegean, Greece [?]
6.8 miles East bearing 108° from Náousa, Nomós Kykládon, South Aegean, Greece
93.8 miles Southeast bearing 123° from Kalývia Thorikoú, Nomarchía Anatolikís Attikís, Attica, Greece
101.7 miles Southeast bearing 132° from Néa Mákri, Nomarchía Anatolikís Attikís, Attica, Greece
Last position: 2018-09-15 11:18:42 EDT (9d 11m ago)
2018-09-15 18:18:42 EEST local time at Young Inn, Greece [?]
Altitude: 33 ft
Course: 352°
Speed: 1 MPH
Device: Kenwood: TM-D710 (rig)
Last path: OE3RNB-4>SW0U17 via J48VAE,YM4MUG*,WIDE2-2,qAR,TA2BU-11 (good)
Positions stored: 18995
Other SSIDs: OE3RNB-10 OE3RNB-5 OE3RNB-9
Stations near current position of OE3RNB-4 - show more
callsign distance last heard - EDT      callsign distance last heard - EDT
SV8FEW1.9 miles 59°2018-09-24 11:01:44 sv8fes3.0 miles 83°2018-09-24 11:24:36
SV8FEC3.4 miles 103°2018-09-23 14:52:37 SV1DAR-93.6 miles 154°2018-09-24 11:29:23
IT9FXF3.6 miles 154°2018-09-22 11:18:51 SV1DAR-73.6 miles 154°2018-09-22 12:12:14
SV8FEK6.3 miles 247°2018-09-24 11:20:03 SV1RQG6.7 miles 290°2018-08-31 13:13:32
SV3QUP-77.9 miles 289°2018-09-08 13:20:39 SV8FEA-DP8.4 miles 107°2018-09-24 07:50:46
J48VAE10.2 miles 82°2018-09-24 11:22:57 SV8JVM11.1 miles 270°2018-09-23 14:52:37
SV4SCL-711.2 miles 270°2018-09-23 14:52:37 SV4SCL11.2 miles 270°2018-09-04 12:42:58
CU2FH20.2 miles 253°2018-09-09 11:00:14 OE1JOW32.9 miles 122°2018-09-22 08:30:19
SV3IBF-535.2 miles 295°2018-09-09 13:16:18
Stations which heard OE3RNB-4 directly on radio –
callsign pkts first heard - EDT last heard longest (tx => rx) longest at - EDT
IZ4EFV 15 2018-09-06 02:30:24 2018-09-06 02:50:52 JN64FC > JN63HX 12.7 miles 129° 2018-09-06 02:30:24
OE1XQR 18 2018-09-05 05:48:01 2018-09-05 07:03:16 JN87BO > JN88EE 41.9 miles 17° 2018-09-05 07:03:16
OE6XTR 52 2018-09-05 05:55:57 2018-09-05 08:38:44 JN76MX > JN77VN 54.9 miles 40° 2018-09-05 08:38:44
J41VAI 52 2018-09-07 11:58:06 2018-09-07 22:40:32 KM18BF > KM17VW 95.9 miles 101° 2018-09-07 11:58:06
IR4U-2 42 2018-09-05 13:13:59 2018-09-06 02:42:12 JN65CF > JN64CD 73.7 miles 180° 2018-09-05 13:13:59
IR3BT 65 2018-09-05 12:02:40 2018-09-06 03:38:57 JN63RO > JN56MD 211.9 miles 326° 2018-09-06 03:38:57
IR6AF 31 2018-09-05 14:03:26 2018-09-06 03:42:03 JN65CA > JN63OP 105.5 miles 152° 2018-09-05 14:03:26
J43VAE 5 2018-09-07 11:19:57 2018-09-07 11:45:02 KM08WH > KM08VF 8.2 miles 226° 2018-09-07 11:45:02
IR3AS 11 2018-09-05 13:17:29 2018-09-06 03:37:59 JN63RO > JN56QB 198.7 miles 329° 2018-09-06 03:37:59
HG1PNY-1 6 2018-09-05 07:02:31 2018-09-05 07:21:35 JN87AH > JN87TN 76.6 miles 76° 2018-09-05 07:21:35
IK3XTM 29 2018-09-05 14:03:29 2018-09-06 03:32:40 JN63RO > JN55LP 186.4 miles 320° 2018-09-06 03:32:40
IQ3QR-11 1 2018-09-06 03:12:29 2018-09-06 03:12:29 JN63PQ > JN65AS 155.8 miles 338° 2018-09-06 03:12:29
OE6XRR 17 2018-09-05 07:25:11 2018-09-05 08:34:23 JN87AG > JN77QC 33.5 miles 248° 2018-09-05 07:25:11
OE3XKR 24 2018-09-05 05:04:05 2018-09-05 06:44:33 JN87CV > JN88EN 48.2 miles 10° 2018-09-05 06:44:33
OE1SSU-10 4 2018-09-05 05:57:03 2018-09-05 06:27:35 JN88DC > JN88DD 3.0 miles 332° 2018-09-05 06:04:23
IR6UCA 10 2018-09-06 02:43:28 2018-09-06 02:55:52 JN63IX > JN63KV 8.4 miles 119° 2018-09-06 02:43:28
IR4AS 3 2018-09-05 15:12:16 2018-09-06 02:25:50 JN64CJ > JN64GB 28.1 miles 146° 2018-09-05 15:12:16
OE6XLR-11 24 2018-09-05 07:08:40 2018-09-05 10:11:05 JN66SM > JN77OI 96.7 miles 52° 2018-09-05 10:11:05
IR3DM-11 1 2018-09-05 15:05:51 2018-09-05 15:05:51 JN64CK > JN65DE 51.8 miles 5° 2018-09-05 15:05:51
OE1IWA-10 18 2018-09-05 06:00:13 2018-09-05 06:33:17 JN88EB > JN88ED 6.0 miles 2° 2018-09-05 06:33:17
S59GCD-12 1 2018-09-05 08:52:56 2018-09-05 08:52:56 JN76JV > JN76OE 52.4 miles 159° 2018-09-05 08:52:56
IZ3LSV-1 32 2018-09-05 10:38:23 2018-09-06 03:29:44 JN63QO > JN65HP 145.4 miles 344° 2018-09-06 03:29:44
S55UJE-11 36 2018-09-05 07:57:25 2018-09-06 03:29:45 JN63QO > JN76BL 200.8 miles 10° 2018-09-06 03:29:45
OE3XTR-2 15 2018-09-05 06:42:17 2018-09-05 07:00:57 JN87BO > JN87AT 14.6 miles 342° 2018-09-05 07:00:57
9A7KXP-1 16 2018-09-05 07:12:13 2018-09-05 10:00:10 JN66UN > JN75XV 117.0 miles 113° 2018-09-05 10:00:10
OE1IWA-11 1 2018-09-05 06:04:49 2018-09-05 06:04:49 JN88DC > JN88ED 2.9 miles 30° 2018-09-05 06:04:49
OE1TRB-15 1 2018-09-05 05:54:04 2018-09-05 05:54:04 JN88DE > JN88EF 5.4 miles 29° 2018-09-05 05:54:04
OE3TRB-15 1 2018-09-05 06:46:02 2018-09-05 06:46:02 JN87CU > JN87BW 6.3 miles 325° 2018-09-05 06:46:02
HG5PGE-2 1 2018-09-05 07:08:02 2018-09-05 07:08:02 JN87BM > JN97FQ 111.4 miles 84° 2018-09-05 07:08:02
IR6UCQ 3 2018-09-06 02:49:27 2018-09-06 03:17:47 JN63JW > JN63NE 52.9 miles 162° 2018-09-06 02:49:27
S59DGO-5 67 2018-09-05 11:18:00 2018-09-06 03:41:56 JN63QO > JN75FO 147.7 miles 21° 2018-09-06 03:23:47
IK3ITI 37 2018-09-05 10:49:07 2018-09-06 03:29:43 JN63QO > JN65KS 151.2 miles 350° 2018-09-06 03:29:43
OE3PAS-15 21 2018-09-05 05:54:54 2018-09-05 06:43:47 JN88DE > JN87DX 13.2 miles 184° 2018-09-05 05:54:54
OE3RNB-10 12 2018-09-05 05:01:15 2018-09-05 05:28:32 JN88BF > JN88AG 5.5 miles 305° 2018-09-05 05:28:32
OE3PDB-3 19 2018-09-05 05:04:24 2018-09-05 06:29:49 JN88DC > JN88BG 14.8 miles 316° 2018-09-05 06:04:13
S57AJJ-10 4 2018-09-05 09:37:10 2018-09-05 09:49:53 JN66VN > JN76CI 24.1 miles 130° 2018-09-05 09:49:53
OH6DL-10 2 2018-09-01 08:08:33 2018-09-01 08:17:39 JN88AG > KP22BC 1005.8 miles 15° 2018-09-01 08:17:39
SV1IZV-11 1 2018-09-07 12:28:36 2018-09-07 12:28:36 KM18HB > KM18UK 65.4 miles 68° 2018-09-07 12:28:36
OE8KKK-11 2 2018-09-05 09:59:57 2018-09-05 10:05:27 JN66TM > JN76DM 32.1 miles 90° 2018-09-05 10:05:27
OE3XLR 10 2018-09-05 05:01:16 2018-09-05 07:07:23 JN87BN > JN77TX 37.9 miles 322° 2018-09-05 07:07:23
S55YZA-11 8 2018-09-05 07:14:18 2018-09-05 09:50:41 JN87BK > JN76NE 98.6 miles 209° 2018-09-05 07:14:18
OE3GWW-2 4 2018-09-05 05:18:32 2018-09-05 05:36:47 JN88BF > JN88BE 2.3 miles 217° 2018-09-05 05:18:32
OE6XBF-11 25 2018-09-05 07:08:54 2018-09-05 10:12:08 JN66SM > JN76XU 114.8 miles 77° 2018-09-05 10:12:08
IQ3TS 29 2018-09-05 11:31:30 2018-09-05 14:04:21 JN65CA > JN65VP 89.1 miles 60° 2018-09-05 14:04:21
IQ3UD 36 2018-09-05 10:35:00 2018-09-06 03:29:43 JN63QO > JN66OB 170.2 miles 357° 2018-09-06 03:29:43
OE3PDB-4 25 2018-09-05 05:07:28 2018-09-05 06:28:46 JN88DC > JN88CE 9.0 miles 322° 2018-09-05 06:28:46
OE3XAR-10 1 2018-09-05 06:24:59 2018-09-05 06:24:59 JN88DC > JN78SB 36.1 miles 264° 2018-09-05 06:24:59
9A3ATZ-10 6 2018-09-06 03:03:51 2018-09-06 03:33:23 JN63QO > JN85AQ 197.8 miles 42° 2018-09-06 03:19:58
S59EKL-10 1 2018-09-05 08:52:55 2018-09-05 08:52:55 JN76JV > JN76NI 39.8 miles 159° 2018-09-05 08:52:55
IR3CA-2 80 2018-09-05 12:05:37 2018-09-06 03:29:51 JN63QO > JN66EA 173.7 miles 343° 2018-09-06 03:29:51
9A7KXP 2 2018-09-05 07:14:16 2018-09-05 07:17:23 JN87BK > JN85DT 111.8 miles 175° 2018-09-05 07:14:16
SV3AQO-10 20 2018-09-07 11:19:03 2018-09-07 11:40:56 KM08VH > KM08UF 6.8 miles 215° 2018-09-07 11:40:56
IZ3VIV-15 5 2018-09-05 12:57:58 2018-09-06 03:14:00 JN63PQ > JN55PJ 154.2 miles 321° 2018-09-06 03:14:00
IW3FVZ-11 2 2018-09-06 02:55:51 2018-09-06 02:59:57 JN63MT > JN55WH 117.1 miles 332° 2018-09-06 02:59:57
IQ3ME-11 18 2018-09-05 12:24:37 2018-09-05 13:48:23 JN65DC > JN65CL 26.1 miles 357° 2018-09-05 13:48:23
IQ4SC 1 2018-09-05 14:53:54 2018-09-05 14:53:54 JN64CN > JN54IO 76.2 miles 273° 2018-09-05 14:53:54
OE3PDB-10 14 2018-09-05 05:01:47 2018-09-05 06:29:27 JN88DC > JN88BG 14.8 miles 317° 2018-09-05 06:29:27
IV3GCH 15 2018-09-05 10:35:42 2018-09-06 03:05:57 JN63NS > JN65KX 152.6 miles 355° 2018-09-06 03:05:57
OE3KJN-10 4 2018-09-05 06:34:02 2018-09-05 07:06:41 JN87BN > JN87EX 31.3 miles 23° 2018-09-05 07:06:41
IR3EO 158 2018-09-05 10:45:02 2018-09-06 03:35:09 JN63QO > JN66OF 182.5 miles 358° 2018-09-06 03:20:35
OE6XAR-1 3 2018-09-05 08:34:48 2018-09-05 09:15:58 JN76GP > JN77EG 43.2 miles 349° 2018-09-05 09:15:58
S59DTB-10 2 2018-09-05 07:09:30 2018-09-05 07:18:32 JN87BM > JN86AO 62.3 miles 182° 2018-09-05 07:09:30
OE8HXK 5 2018-09-05 09:24:21 2018-09-05 09:41:06 JN66XO > JN76DM 15.1 miles 113° 2018-09-05 09:41:06
IZ4AQM 8 2018-09-05 14:23:45 2018-09-05 15:35:19 JN64CU > JN54TD 55.1 miles 209° 2018-09-05 14:23:45
OE6XG-1 36 2018-09-05 07:37:30 2018-09-05 08:40:48 JN77XC > JN77OD 35.5 miles 276° 2018-09-05 07:37:30
OE8LCK-10 39 2018-09-05 07:31:46 2018-09-05 10:10:58 JN77XE > JN76DQ 89.9 miles 247° 2018-09-05 07:31:46
IQ3VO 7 2018-09-05 13:01:40 2018-09-06 03:27:19 JN63QO > JN55MQ 183.5 miles 322° 2018-09-06 03:27:19
IR3AO 72 2018-09-05 11:46:52 2018-09-06 03:30:24 JN63RO > JN56WK 209.9 miles 339° 2018-09-06 03:30:24
SV3ISZ-11 1 2018-09-07 12:57:22 2018-09-07 12:57:22 KM17MW > KM17KO 25.3 miles 208° 2018-09-07 12:57:22
IZ4GWE 50 2018-09-05 14:03:24 2018-09-06 02:39:08 JN65CA > JN64CK 41.3 miles 181° 2018-09-05 14:03:24
OE8NDR 10 2018-09-05 09:00:56 2018-09-05 09:41:33 JN66XO > JN76IP 35.3 miles 86° 2018-09-05 09:41:33
IK3YBX-10 1 2018-09-05 12:33:33 2018-09-05 12:33:33 JN65CL > JN65DM 4.1 miles 53° 2018-09-05 12:33:33
T79PRS 30 2018-09-05 15:28:38 2018-09-06 03:00:42 JN64BG > JN63FV 30.9 miles 142° 2018-09-05 15:28:38
IR6UDA-11 47 2018-09-05 13:10:53 2018-09-06 02:58:23 JN65CF > JN63EU 96.0 miles 176° 2018-09-05 13:10:53
9A1AYZ-11 32 2018-09-05 07:58:18 2018-09-05 10:00:04 JN66UN > JN75TR 107.7 miles 121° 2018-09-05 10:00:04
IR3UDH 2 2018-09-05 12:18:30 2018-09-05 12:19:06 JN65EN > JN56TC 49.5 miles 317° 2018-09-05 12:19:06
SV3QUP-10 3 2018-09-07 11:37:53 2018-09-07 11:42:13 KM08VH > KM08VG 2.5 miles 227° 2018-09-07 11:42:13
IQ3UH 6 2018-09-05 10:34:20 2018-09-05 11:17:05 JN66OC > JN66MJ 22.1 miles 336° 2018-09-05 11:17:05
OE6XG-2 13 2018-09-05 07:31:41 2018-09-05 08:48:44 JN77XE > JN77OF 35.4 miles 276° 2018-09-05 07:31:41
IQ3PN 5 2018-09-05 09:57:19 2018-09-05 11:52:51 JN66UN > JN65HX 64.9 miles 230° 2018-09-05 09:59:57
S50VZZ-10 2 2018-09-05 08:03:27 2018-09-05 08:06:35 JN76QX > JN76OM 34.8 miles 197° 2018-09-05 08:03:27
9A1AYZ-12 50 2018-09-05 08:09:56 2018-09-06 03:38:26 JN76PX > JN74LT 149.4 miles 186° 2018-09-05 08:09:56
IR3EH 22 2018-09-05 11:04:07 2018-09-05 12:10:51 JN65PV > JN66DB 48.8 miles 285° 2018-09-05 11:30:16
IR3EP-11 24 2018-09-05 12:20:05 2018-09-05 15:18:18 JN64BI > JN55SK 81.1 miles 339° 2018-09-05 15:18:18
IK3OCD-10 22 2018-09-05 12:24:56 2018-09-06 03:13:54 JN63PQ > JN65AL 137.5 miles 335° 2018-09-06 03:13:54
IV3CLI 14 2018-09-05 10:31:59 2018-09-06 03:13:54 JN63PQ > JN65QS 144.5 miles 1° 2018-09-06 03:13:54
OE8YKK-5 6 2018-09-05 09:30:59 2018-09-05 09:41:34 JN66XO > JN76DM 16.9 miles 111° 2018-09-05 09:41:34
OE3XWJ-10 3 2018-09-05 05:04:04 2018-09-05 05:06:27 JN88BG > JN78QI 35.1 miles 280° 2018-09-05 05:06:27
S55YRK 1 2018-09-05 09:14:52 2018-09-05 09:14:52 JN76GP > JN76LN 18.5 miles 111° 2018-09-05 09:14:52
J48VAE 29 2018-09-13 13:06:53 2018-09-15 11:18:42 KM27QC > KM27SC 10.2 miles 82° 2018-09-15 11:18:42
9A9KW-11 87 2018-09-05 11:22:48 2018-09-06 03:38:50 JN63QO > JN65VF 113.5 miles 10° 2018-09-06 03:20:47
OE3XXI 18 2018-09-05 05:08:15 2018-09-05 06:32:34 JN88BF > JN88HE 23.7 miles 102° 2018-09-05 05:08:15
SV1HER-3 8 2018-09-07 22:14:45 2018-09-15 06:40:02 KM27SB > KM18UA 120.5 miles 304° 2018-09-15 06:40:02
OE3WHU-7 1 2018-09-05 06:28:21 2018-09-05 06:28:21 JN88DC > JN88FJ 20.1 miles 14° 2018-09-05 06:28:21
IK3XTM-9 1 2018-09-05 15:12:29 2018-09-05 15:12:29 JN64CJ > JN55LN 100.3 miles 324° 2018-09-05 15:12:29

Only position packets which were originated by the station are shown here. The range statistics show some extra long hops, because some digipeaters do not correctly add themselves to the digipeater path. Please check the raw packets.
About this site
This page shows real-time information collected from the Automatic Position Reporting System Internet network (APRS-IS). APRS is used by amateur (ham) radio operators to transmit real-time position information, weather data, telemetry and messages over the radio. A vehicle equipped with a GPS receiver, a VHF transmitter or HF transceiver and a small computer device called a tracker transmits it's location, speed and course in a small data packet, which is then received by a nearby iGate receiving site which forwards the packet on the Internet. Systems connected to the Internet can send information on the APRS-IS without a radio transmitter, or collect and display information transmitted anywhere in the world.
FAQ · Blog · Discussion group · Linking to aprs.fi · AIS sites · Service status · Database statistics · Advertising on aprs.fi · Technical details · API · Change log · Planned changes · Credits and thanks · Terms Of Service · iPhone/iPad APRS